sensor_id;sensor_type;location;lat;lon;timestamp;P1;durP1;ratioP1;P2;durP2;ratioP2
54945;SDS011;40846;44.788;20.486;2022-12-24T00:01:09;60.30;;;25.80;;
54945;SDS011;40846;44.788;20.486;2022-12-24T00:03:35;59.60;;;26.23;;
54945;SDS011;40846;44.788;20.486;2022-12-24T00:06:06;55.60;;;25.17;;
54945;SDS011;40846;44.788;20.486;2022-12-24T00:08:33;47.10;;;23.85;;
54945;SDS011;40846;44.788;20.486;2022-12-24T00:10:59;59.60;;;24.90;;
54945;SDS011;40846;44.788;20.486;2022-12-24T00:13:27;49.83;;;24.13;;
54945;SDS011;40846;44.788;20.486;2022-12-24T00:15:53;57.75;;;24.88;;
54945;SDS011;40846;44.788;20.486;2022-12-24T00:18:19;83.30;;;33.22;;
54945;SDS011;40846;44.788;20.486;2022-12-24T00:20:45;96.45;;;34.30;;
54945;SDS011;40846;44.788;20.486;2022-12-24T00:23:12;89.05;;;33.75;;
54945;SDS011;40846;44.788;20.486;2022-12-24T00:25:38;80.53;;;29.42;;
54945;SDS011;40846;44.788;20.486;2022-12-24T00:28:04;89.10;;;29.95;;
54945;SDS011;40846;44.788;20.486;2022-12-24T00:30:31;68.80;;;27.83;;
54945;SDS011;40846;44.788;20.486;2022-12-24T00:32:57;58.67;;;25.48;;
54945;SDS011;40846;44.788;20.486;2022-12-24T00:35:22;56.22;;;24.90;;
54945;SDS011;40846;44.788;20.486;2022-12-24T00:37:48;59.88;;;25.42;;
54945;SDS011;40846;44.788;20.486;2022-12-24T00:40:15;65.63;;;26.08;;
54945;SDS011;40846;44.788;20.486;2022-12-24T00:42:42;76.45;;;29.33;;
54945;SDS011;40846;44.788;20.486;2022-12-24T00:45:08;81.53;;;32.10;;
54945;SDS011;40846;44.788;20.486;2022-12-24T00:47:34;90.38;;;37.50;;
54945;SDS011;40846;44.788;20.486;2022-12-24T00:50:00;94.55;;;42.25;;
54945;SDS011;40846;44.788;20.486;2022-12-24T00:52:28;97.55;;;39.42;;
54945;SDS011;40846;44.788;20.486;2022-12-24T00:54:53;81.47;;;37.83;;
54945;SDS011;40846;44.788;20.486;2022-12-24T00:57:19;69.57;;;30.77;;
54945;SDS011;40846;44.788;20.486;2022-12-24T00:59:45;60.45;;;30.35;;
54945;SDS011;40846;44.788;20.486;2022-12-24T01:02:10;61.67;;;26.70;;
54945;SDS011;40846;44.788;20.486;2022-12-24T01:04:36;56.00;;;26.10;;
54945;SDS011;40846;44.788;20.486;2022-12-24T01:07:20;59.65;;;26.95;;
54945;SDS011;40846;44.788;20.486;2022-12-24T01:09:46;58.13;;;28.02;;
54945;SDS011;40846;44.788;20.486;2022-12-24T01:12:12;76.32;;;30.80;;
54945;SDS011;40846;44.788;20.486;2022-12-24T01:14:38;70.50;;;30.60;;
54945;SDS011;40846;44.788;20.486;2022-12-24T01:17:03;250.27;;;72.82;;
54945;SDS011;40846;44.788;20.486;2022-12-24T01:19:29;279.23;;;88.18;;
54945;SDS011;40846;44.788;20.486;2022-12-24T01:21:55;252.20;;;75.78;;
54945;SDS011;40846;44.788;20.486;2022-12-24T01:24:22;212.73;;;68.95;;
54945;SDS011;40846;44.788;20.486;2022-12-24T01:26:47;315.42;;;84.38;;
54945;SDS011;40846;44.788;20.486;2022-12-24T01:29:13;44.13;;;20.05;;
54945;SDS011;40846;44.788;20.486;2022-12-24T01:31:39;39.83;;;16.92;;
54945;SDS011;40846;44.788;20.486;2022-12-24T01:34:05;34.92;;;13.57;;
54945;SDS011;40846;44.788;20.486;2022-12-24T01:36:31;32.20;;;14.80;;
54945;SDS011;40846;44.788;20.486;2022-12-24T01:38:57;90.88;;;29.85;;
54945;SDS011;40846;44.788;20.486;2022-12-24T01:41:23;125.28;;;37.35;;
54945;SDS011;40846;44.788;20.486;2022-12-24T01:44:18;71.70;;;22.77;;
54945;SDS011;40846;44.788;20.486;2022-12-24T01:46:46;189.90;;;54.92;;
54945;SDS011;40846;44.788;20.486;2022-12-24T01:49:14;57.85;;;22.40;;
54945;SDS011;40846;44.788;20.486;2022-12-24T01:51:48;31.13;;;14.13;;
54945;SDS011;40846;44.788;20.486;2022-12-24T01:55:09;39.03;;;14.88;;
54945;SDS011;40846;44.788;20.486;2022-12-24T01:57:30;22.60;;;11.20;;
54945;SDS011;40846;44.788;20.486;2022-12-24T02:00:04;31.55;;;10.23;;
54945;SDS011;40846;44.788;20.486;2022-12-24T02:02:32;23.92;;;10.57;;
54945;SDS011;40846;44.788;20.486;2022-12-24T02:05:13;53.97;;;18.92;;
54945;SDS011;40846;44.788;20.486;2022-12-24T02:07:46;151.80;;;42.20;;
54945;SDS011;40846;44.788;20.486;2022-12-24T02:10:13;94.88;;;29.20;;
54945;SDS011;40846;44.788;20.486;2022-12-24T02:12:39;55.10;;;17.48;;
54945;SDS011;40846;44.788;20.486;2022-12-24T02:15:07;63.58;;;20.17;;
54945;SDS011;40846;44.788;20.486;2022-12-24T02:23:06;138.10;;;38.50;;
54945;SDS011;40846;44.788;20.486;2022-12-24T02:30:59;215.43;;;59.58;;
54945;SDS011;40846;44.788;20.486;2022-12-24T02:33:54;77.40;;;26.23;;
54945;SDS011;40846;44.788;20.486;2022-12-24T02:36:30;63.20;;;20.83;;
54945;SDS011;40846;44.788;20.486;2022-12-24T02:39:05;64.90;;;23.13;;
54945;SDS011;40846;44.788;20.486;2022-12-24T02:41:36;31.30;;;12.60;;
54945;SDS011;40846;44.788;20.486;2022-12-24T02:44:29;27.85;;;11.65;;
54945;SDS011;40846;44.788;20.486;2022-12-24T02:46:58;16.73;;;8.95;;
54945;SDS011;40846;44.788;20.486;2022-12-24T02:49:26;19.40;;;9.43;;
54945;SDS011;40846;44.788;20.486;2022-12-24T02:51:52;25.05;;;9.15;;
54945;SDS011;40846;44.788;20.486;2022-12-24T02:54:18;28.38;;;11.82;;
54945;SDS011;40846;44.788;20.486;2022-12-24T03:02:23;45.78;;;17.80;;
54945;SDS011;40846;44.788;20.486;2022-12-24T03:13:13;78.75;;;31.75;;
54945;SDS011;40846;44.788;20.486;2022-12-24T03:15:41;54.83;;;24.05;;
54945;SDS011;40846;44.788;20.486;2022-12-24T03:18:09;81.32;;;26.75;;
54945;SDS011;40846;44.788;20.486;2022-12-24T03:20:41;46.85;;;17.10;;
54945;SDS011;40846;44.788;20.486;2022-12-24T03:23:13;54.22;;;19.98;;
54945;SDS011;40846;44.788;20.486;2022-12-24T03:25:39;62.90;;;23.95;;
54945;SDS011;40846;44.788;20.486;2022-12-24T03:28:06;68.60;;;29.65;;
54945;SDS011;40846;44.788;20.486;2022-12-24T03:30:38;57.05;;;27.30;;
54945;SDS011;40846;44.788;20.486;2022-12-24T03:33:05;62.65;;;27.73;;
54945;SDS011;40846;44.788;20.486;2022-12-24T03:35:30;45.25;;;21.60;;
54945;SDS011;40846;44.788;20.486;2022-12-24T03:37:56;38.88;;;19.83;;
54945;SDS011;40846;44.788;20.486;2022-12-24T03:40:22;47.70;;;22.77;;
54945;SDS011;40846;44.788;20.486;2022-12-24T03:42:48;49.88;;;21.90;;
54945;SDS011;40846;44.788;20.486;2022-12-24T03:45:13;49.67;;;21.77;;
54945;SDS011;40846;44.788;20.486;2022-12-24T03:47:39;44.78;;;21.92;;
54945;SDS011;40846;44.788;20.486;2022-12-24T03:50:05;48.53;;;23.35;;
54945;SDS011;40846;44.788;20.486;2022-12-24T03:52:31;51.53;;;23.10;;
54945;SDS011;40846;44.788;20.486;2022-12-24T03:54:57;49.60;;;20.23;;
54945;SDS011;40846;44.788;20.486;2022-12-24T03:57:23;33.25;;;14.18;;
54945;SDS011;40846;44.788;20.486;2022-12-24T03:59:49;23.38;;;10.82;;
54945;SDS011;40846;44.788;20.486;2022-12-24T04:02:15;26.48;;;11.15;;
54945;SDS011;40846;44.788;20.486;2022-12-24T04:04:41;27.73;;;10.85;;
54945;SDS011;40846;44.788;20.486;2022-12-24T04:07:06;23.10;;;10.68;;
54945;SDS011;40846;44.788;20.486;2022-12-24T04:09:35;21.63;;;11.05;;
54945;SDS011;40846;44.788;20.486;2022-12-24T04:12:01;31.48;;;13.90;;
54945;SDS011;40846;44.788;20.486;2022-12-24T04:14:27;25.75;;;12.60;;
54945;SDS011;40846;44.788;20.486;2022-12-24T04:16:52;28.42;;;12.95;;
54945;SDS011;40846;44.788;20.486;2022-12-24T04:19:18;25.10;;;11.68;;
54945;SDS011;40846;44.788;20.486;2022-12-24T04:21:44;26.98;;;11.10;;
54945;SDS011;40846;44.788;20.486;2022-12-24T04:24:09;25.77;;;12.23;;
54945;SDS011;40846;44.788;20.486;2022-12-24T04:26:36;21.58;;;10.20;;
54945;SDS011;40846;44.788;20.486;2022-12-24T04:29:02;20.92;;;9.88;;
54945;SDS011;40846;44.788;20.486;2022-12-24T04:31:27;20.98;;;9.45;;
54945;SDS011;40846;44.788;20.486;2022-12-24T04:33:53;17.95;;;8.60;;
54945;SDS011;40846;44.788;20.486;2022-12-24T04:36:19;17.70;;;9.27;;
54945;SDS011;40846;44.788;20.486;2022-12-24T04:38:48;22.48;;;8.70;;
54945;SDS011;40846;44.788;20.486;2022-12-24T04:41:21;23.20;;;10.15;;
54945;SDS011;40846;44.788;20.486;2022-12-24T04:43:49;20.80;;;8.82;;
54945;SDS011;40846;44.788;20.486;2022-12-24T04:46:20;22.70;;;8.52;;
54945;SDS011;40846;44.788;20.486;2022-12-24T04:48:48;21.15;;;8.70;;
54945;SDS011;40846;44.788;20.486;2022-12-24T04:51:15;22.80;;;8.57;;
54945;SDS011;40846;44.788;20.486;2022-12-24T04:53:42;17.55;;;8.05;;
54945;SDS011;40846;44.788;20.486;2022-12-24T04:56:08;17.55;;;8.25;;
54945;SDS011;40846;44.788;20.486;2022-12-24T04:58:37;14.82;;;8.30;;
54945;SDS011;40846;44.788;20.486;2022-12-24T05:01:06;15.48;;;7.32;;
54945;SDS011;40846;44.788;20.486;2022-12-24T05:03:36;21.45;;;8.00;;
54945;SDS011;40846;44.788;20.486;2022-12-24T05:06:02;17.65;;;8.52;;
54945;SDS011;40846;44.788;20.486;2022-12-24T05:08:29;15.75;;;7.38;;
54945;SDS011;40846;44.788;20.486;2022-12-24T05:10:57;18.90;;;8.05;;
54945;SDS011;40846;44.788;20.486;2022-12-24T05:13:23;13.07;;;7.47;;
54945;SDS011;40846;44.788;20.486;2022-12-24T05:15:49;17.15;;;8.35;;
54945;SDS011;40846;44.788;20.486;2022-12-24T05:18:15;15.27;;;6.97;;
54945;SDS011;40846;44.788;20.486;2022-12-24T05:20:41;16.90;;;8.23;;
54945;SDS011;40846;44.788;20.486;2022-12-24T05:23:08;17.75;;;7.93;;
54945;SDS011;40846;44.788;20.486;2022-12-24T05:25:57;18.25;;;8.15;;
54945;SDS011;40846;44.788;20.486;2022-12-24T05:28:43;15.40;;;7.78;;
54945;SDS011;40846;44.788;20.486;2022-12-24T05:31:09;18.27;;;7.45;;
54945;SDS011;40846;44.788;20.486;2022-12-24T05:33:34;15.52;;;7.55;;
54945;SDS011;40846;44.788;20.486;2022-12-24T05:36:00;17.58;;;7.00;;
54945;SDS011;40846;44.788;20.486;2022-12-24T05:38:26;14.18;;;6.95;;
54945;SDS011;40846;44.788;20.486;2022-12-24T05:40:52;13.48;;;7.38;;
54945;SDS011;40846;44.788;20.486;2022-12-24T05:43:18;20.88;;;7.72;;
54945;SDS011;40846;44.788;20.486;2022-12-24T05:45:43;15.40;;;7.35;;
54945;SDS011;40846;44.788;20.486;2022-12-24T05:48:09;15.75;;;7.38;;
54945;SDS011;40846;44.788;20.486;2022-12-24T05:50:35;16.08;;;6.47;;
54945;SDS011;40846;44.788;20.486;2022-12-24T05:53:03;15.73;;;7.03;;
54945;SDS011;40846;44.788;20.486;2022-12-24T05:55:29;13.00;;;6.35;;
54945;SDS011;40846;44.788;20.486;2022-12-24T05:57:57;12.80;;;7.03;;
54945;SDS011;40846;44.788;20.486;2022-12-24T06:00:23;17.42;;;6.68;;
54945;SDS011;40846;44.788;20.486;2022-12-24T06:02:49;12.95;;;6.03;;
54945;SDS011;40846;44.788;20.486;2022-12-24T06:05:15;10.38;;;6.38;;
54945;SDS011;40846;44.788;20.486;2022-12-24T06:07:41;13.18;;;6.40;;
54945;SDS011;40846;44.788;20.486;2022-12-24T06:10:07;16.25;;;6.05;;
54945;SDS011;40846;44.788;20.486;2022-12-24T06:12:33;15.10;;;6.35;;
54945;SDS011;40846;44.788;20.486;2022-12-24T06:14:59;10.73;;;5.60;;
54945;SDS011;40846;44.788;20.486;2022-12-24T06:17:25;11.65;;;5.95;;
54945;SDS011;40846;44.788;20.486;2022-12-24T06:19:51;11.50;;;6.05;;
54945;SDS011;40846;44.788;20.486;2022-12-24T06:22:17;9.93;;;5.95;;
54945;SDS011;40846;44.788;20.486;2022-12-24T06:24:43;13.52;;;7.18;;
54945;SDS011;40846;44.788;20.486;2022-12-24T06:27:08;27.60;;;13.50;;
54945;SDS011;40846;44.788;20.486;2022-12-24T06:29:34;45.95;;;20.27;;
54945;SDS011;40846;44.788;20.486;2022-12-24T06:32:00;60.17;;;29.23;;
54945;SDS011;40846;44.788;20.486;2022-12-24T06:34:25;101.40;;;44.70;;
54945;SDS011;40846;44.788;20.486;2022-12-24T06:36:51;39.00;;;17.48;;
54945;SDS011;40846;44.788;20.486;2022-12-24T06:39:17;31.60;;;15.80;;
54945;SDS011;40846;44.788;20.486;2022-12-24T06:41:43;37.85;;;17.63;;
54945;SDS011;40846;44.788;20.486;2022-12-24T06:44:09;44.03;;;20.25;;
54945;SDS011;40846;44.788;20.486;2022-12-24T06:46:35;38.90;;;17.35;;
54945;SDS011;40846;44.788;20.486;2022-12-24T06:49:01;64.45;;;26.42;;
54945;SDS011;40846;44.788;20.486;2022-12-24T06:51:26;96.97;;;37.40;;
54945;SDS011;40846;44.788;20.486;2022-12-24T06:53:52;213.73;;;77.18;;
54945;SDS011;40846;44.788;20.486;2022-12-24T06:56:19;82.72;;;32.90;;
54945;SDS011;40846;44.788;20.486;2022-12-24T06:58:45;333.30;;;113.57;;
54945;SDS011;40846;44.788;20.486;2022-12-24T07:01:13;270.73;;;100.20;;
54945;SDS011;40846;44.788;20.486;2022-12-24T07:03:43;277.35;;;98.97;;
54945;SDS011;40846;44.788;20.486;2022-12-24T07:06:19;113.80;;;40.10;;
54945;SDS011;40846;44.788;20.486;2022-12-24T07:08:48;121.72;;;45.80;;
54945;SDS011;40846;44.788;20.486;2022-12-24T07:11:14;50.13;;;20.58;;
54945;SDS011;40846;44.788;20.486;2022-12-24T07:13:40;38.20;;;17.17;;
54945;SDS011;40846;44.788;20.486;2022-12-24T07:16:06;38.28;;;17.98;;
54945;SDS011;40846;44.788;20.486;2022-12-24T07:18:32;46.58;;;19.20;;
54945;SDS011;40846;44.788;20.486;2022-12-24T07:20:58;48.25;;;21.42;;
54945;SDS011;40846;44.788;20.486;2022-12-24T07:23:24;66.30;;;37.10;;
54945;SDS011;40846;44.788;20.486;2022-12-24T07:25:50;65.00;;;38.75;;
54945;SDS011;40846;44.788;20.486;2022-12-24T07:28:16;36.42;;;17.73;;
54945;SDS011;40846;44.788;20.486;2022-12-24T07:30:42;48.92;;;22.33;;
54945;SDS011;40846;44.788;20.486;2022-12-24T07:33:08;44.75;;;25.63;;
54945;SDS011;40846;44.788;20.486;2022-12-24T07:35:34;40.25;;;19.70;;
54945;SDS011;40846;44.788;20.486;2022-12-24T07:38:01;32.97;;;15.35;;
54945;SDS011;40846;44.788;20.486;2022-12-24T07:40:27;36.15;;;16.45;;
54945;SDS011;40846;44.788;20.486;2022-12-24T07:42:52;23.38;;;11.85;;
54945;SDS011;40846;44.788;20.486;2022-12-24T07:45:18;55.05;;;32.95;;
54945;SDS011;40846;44.788;20.486;2022-12-24T07:47:44;23.30;;;12.35;;
54945;SDS011;40846;44.788;20.486;2022-12-24T07:50:10;20.15;;;10.73;;
54945;SDS011;40846;44.788;20.486;2022-12-24T07:52:36;19.48;;;11.43;;
54945;SDS011;40846;44.788;20.486;2022-12-24T07:55:01;21.55;;;10.70;;
54945;SDS011;40846;44.788;20.486;2022-12-24T07:57:27;20.42;;;10.30;;
54945;SDS011;40846;44.788;20.486;2022-12-24T07:59:53;30.17;;;12.13;;
54945;SDS011;40846;44.788;20.486;2022-12-24T08:02:18;23.02;;;10.85;;
54945;SDS011;40846;44.788;20.486;2022-12-24T08:04:44;26.00;;;11.27;;
54945;SDS011;40846;44.788;20.486;2022-12-24T08:07:10;19.80;;;10.63;;
54945;SDS011;40846;44.788;20.486;2022-12-24T08:09:37;23.30;;;10.13;;
54945;SDS011;40846;44.788;20.486;2022-12-24T08:12:03;17.05;;;10.13;;
54945;SDS011;40846;44.788;20.486;2022-12-24T08:14:30;24.63;;;11.70;;
54945;SDS011;40846;44.788;20.486;2022-12-24T08:16:56;20.25;;;10.30;;
54945;SDS011;40846;44.788;20.486;2022-12-24T08:19:22;21.02;;;11.15;;
54945;SDS011;40846;44.788;20.486;2022-12-24T08:21:48;27.67;;;11.45;;
54945;SDS011;40846;44.788;20.486;2022-12-24T08:24:14;22.42;;;12.32;;
54945;SDS011;40846;44.788;20.486;2022-12-24T08:26:40;29.73;;;13.15;;
54945;SDS011;40846;44.788;20.486;2022-12-24T08:29:06;32.05;;;12.82;;
54945;SDS011;40846;44.788;20.486;2022-12-24T08:31:32;32.15;;;12.73;;
54945;SDS011;40846;44.788;20.486;2022-12-24T08:34:01;24.73;;;14.25;;
54945;SDS011;40846;44.788;20.486;2022-12-24T08:36:31;30.45;;;15.15;;
54945;SDS011;40846;44.788;20.486;2022-12-24T08:38:57;32.03;;;14.07;;
54945;SDS011;40846;44.788;20.486;2022-12-24T08:41:23;34.75;;;14.77;;
54945;SDS011;40846;44.788;20.486;2022-12-24T08:43:49;27.65;;;14.38;;
54945;SDS011;40846;44.788;20.486;2022-12-24T08:46:14;28.23;;;13.85;;
54945;SDS011;40846;44.788;20.486;2022-12-24T08:48:40;26.98;;;13.40;;
54945;SDS011;40846;44.788;20.486;2022-12-24T08:51:07;31.27;;;14.40;;
54945;SDS011;40846;44.788;20.486;2022-12-24T08:53:34;33.55;;;13.27;;
54945;SDS011;40846;44.788;20.486;2022-12-24T08:56:01;22.52;;;12.90;;
54945;SDS011;40846;44.788;20.486;2022-12-24T08:58:28;26.67;;;14.30;;
54945;SDS011;40846;44.788;20.486;2022-12-24T09:00:55;26.80;;;12.68;;
54945;SDS011;40846;44.788;20.486;2022-12-24T09:03:20;33.13;;;11.98;;
54945;SDS011;40846;44.788;20.486;2022-12-24T09:05:46;28.90;;;13.63;;
54945;SDS011;40846;44.788;20.486;2022-12-24T09:08:12;24.67;;;12.63;;
54945;SDS011;40846;44.788;20.486;2022-12-24T09:10:38;25.08;;;13.02;;
54945;SDS011;40846;44.788;20.486;2022-12-24T09:13:03;23.95;;;12.55;;
54945;SDS011;40846;44.788;20.486;2022-12-24T09:15:29;23.38;;;12.65;;
54945;SDS011;40846;44.788;20.486;2022-12-24T09:17:55;28.48;;;13.65;;
54945;SDS011;40846;44.788;20.486;2022-12-24T09:20:21;24.45;;;12.55;;
54945;SDS011;40846;44.788;20.486;2022-12-24T09:22:47;32.90;;;14.02;;
54945;SDS011;40846;44.788;20.486;2022-12-24T09:25:13;29.17;;;15.02;;
54945;SDS011;40846;44.788;20.486;2022-12-24T09:27:38;38.58;;;19.63;;
54945;SDS011;40846;44.788;20.486;2022-12-24T09:30:04;28.23;;;13.63;;
54945;SDS011;40846;44.788;20.486;2022-12-24T09:32:31;38.72;;;21.35;;
54945;SDS011;40846;44.788;20.486;2022-12-24T09:34:57;35.22;;;14.77;;
54945;SDS011;40846;44.788;20.486;2022-12-24T09:37:23;31.25;;;13.93;;
54945;SDS011;40846;44.788;20.486;2022-12-24T09:39:58;21.48;;;11.15;;
54945;SDS011;40846;44.788;20.486;2022-12-24T09:42:27;21.10;;;11.25;;
54945;SDS011;40846;44.788;20.486;2022-12-24T09:47:48;21.67;;;11.85;;
54945;SDS011;40846;44.788;20.486;2022-12-24T09:52:51;24.60;;;11.48;;
54945;SDS011;40846;44.788;20.486;2022-12-24T09:55:20;24.35;;;11.48;;
54945;SDS011;40846;44.788;20.486;2022-12-24T09:57:50;22.05;;;11.18;;
54945;SDS011;40846;44.788;20.486;2022-12-24T10:00:25;22.92;;;10.95;;
54945;SDS011;40846;44.788;20.486;2022-12-24T10:02:53;26.90;;;11.80;;
54945;SDS011;40846;44.788;20.486;2022-12-24T10:05:29;19.10;;;10.70;;
54945;SDS011;40846;44.788;20.486;2022-12-24T10:13:19;23.13;;;11.13;;
54945;SDS011;40846;44.788;20.486;2022-12-24T10:15:53;19.95;;;10.48;;
54945;SDS011;40846;44.788;20.486;2022-12-24T10:24:17;20.38;;;9.73;;
54945;SDS011;40846;44.788;20.486;2022-12-24T10:29:33;18.42;;;9.98;;
54945;SDS011;40846;44.788;20.486;2022-12-24T10:32:10;19.30;;;8.38;;
54945;SDS011;40846;44.788;20.486;2022-12-24T10:34:44;19.10;;;8.25;;
54945;SDS011;40846;44.788;20.486;2022-12-24T10:37:14;18.13;;;9.20;;
54945;SDS011;40846;44.788;20.486;2022-12-24T10:39:40;17.17;;;9.25;;
54945;SDS011;40846;44.788;20.486;2022-12-24T10:42:07;18.45;;;9.68;;
54945;SDS011;40846;44.788;20.486;2022-12-24T10:44:34;16.92;;;8.27;;
54945;SDS011;40846;44.788;20.486;2022-12-24T10:47:00;19.75;;;9.10;;
54945;SDS011;40846;44.788;20.486;2022-12-24T10:49:36;19.70;;;10.57;;
54945;SDS011;40846;44.788;20.486;2022-12-24T10:52:05;21.73;;;10.73;;
54945;SDS011;40846;44.788;20.486;2022-12-24T10:54:31;19.83;;;9.90;;
54945;SDS011;40846;44.788;20.486;2022-12-24T10:57:03;18.88;;;10.18;;
54945;SDS011;40846;44.788;20.486;2022-12-24T11:01:56;29.45;;;14.95;;
54945;SDS011;40846;44.788;20.486;2022-12-24T11:04:27;27.02;;;11.68;;
54945;SDS011;40846;44.788;20.486;2022-12-24T11:07:03;21.70;;;11.77;;
54945;SDS011;40846;44.788;20.486;2022-12-24T11:09:32;24.27;;;9.07;;
54945;SDS011;40846;44.788;20.486;2022-12-24T11:11:59;20.42;;;9.25;;
54945;SDS011;40846;44.788;20.486;2022-12-24T11:14:27;19.55;;;9.90;;
54945;SDS011;40846;44.788;20.486;2022-12-24T11:16:54;23.02;;;10.25;;
54945;SDS011;40846;44.788;20.486;2022-12-24T11:19:26;20.02;;;10.02;;
54945;SDS011;40846;44.788;20.486;2022-12-24T11:24:25;21.50;;;9.48;;
54945;SDS011;40846;44.788;20.486;2022-12-24T11:26:52;20.90;;;8.55;;
54945;SDS011;40846;44.788;20.486;2022-12-24T11:29:19;19.75;;;9.00;;
54945;SDS011;40846;44.788;20.486;2022-12-24T11:31:46;18.63;;;10.02;;
54945;SDS011;40846;44.788;20.486;2022-12-24T11:34:23;20.52;;;11.05;;
54945;SDS011;40846;44.788;20.486;2022-12-24T11:36:50;22.70;;;9.10;;
54945;SDS011;40846;44.788;20.486;2022-12-24T11:39:21;18.67;;;10.15;;
54945;SDS011;40846;44.788;20.486;2022-12-24T11:41:48;16.02;;;9.52;;
54945;SDS011;40846;44.788;20.486;2022-12-24T11:44:15;19.77;;;9.50;;
54945;SDS011;40846;44.788;20.486;2022-12-24T11:46:47;22.52;;;11.80;;
54945;SDS011;40846;44.788;20.486;2022-12-24T11:49:21;23.58;;;10.63;;
54945;SDS011;40846;44.788;20.486;2022-12-24T11:51:59;17.25;;;9.82;;
54945;SDS011;40846;44.788;20.486;2022-12-24T11:54:28;13.23;;;7.25;;
54945;SDS011;40846;44.788;20.486;2022-12-24T11:56:56;15.95;;;7.30;;
54945;SDS011;40846;44.788;20.486;2022-12-24T11:59:55;19.70;;;9.82;;
54945;SDS011;40846;44.788;20.486;2022-12-24T12:04:45;14.85;;;7.60;;
54945;SDS011;40846;44.788;20.486;2022-12-24T12:12:40;16.17;;;8.23;;
54945;SDS011;40846;44.788;20.486;2022-12-24T12:15:16;19.05;;;9.45;;
54945;SDS011;40846;44.788;20.486;2022-12-24T12:17:49;14.38;;;7.53;;
54945;SDS011;40846;44.788;20.486;2022-12-24T12:22:49;40.40;;;17.70;;
54945;SDS011;40846;44.788;20.486;2022-12-24T12:28:00;18.98;;;9.07;;
54945;SDS011;40846;44.788;20.486;2022-12-24T12:30:27;17.20;;;10.40;;
54945;SDS011;40846;44.788;20.486;2022-12-24T12:35:36;22.15;;;11.50;;
54945;SDS011;40846;44.788;20.486;2022-12-24T12:38:05;52.38;;;19.55;;
54945;SDS011;40846;44.788;20.486;2022-12-24T12:45:54;30.15;;;12.05;;
54945;SDS011;40846;44.788;20.486;2022-12-24T12:48:26;22.13;;;11.30;;
54945;SDS011;40846;44.788;20.486;2022-12-24T12:58:46;25.20;;;13.40;;
54945;SDS011;40846;44.788;20.486;2022-12-24T13:09:06;29.40;;;15.05;;
54945;SDS011;40846;44.788;20.486;2022-12-24T13:17:10;46.80;;;19.60;;
54945;SDS011;40846;44.788;20.486;2022-12-24T13:20:07;36.17;;;16.92;;
54945;SDS011;40846;44.788;20.486;2022-12-24T13:22:27;30.95;;;15.80;;
54945;SDS011;40846;44.788;20.486;2022-12-24T13:24:53;23.17;;;12.73;;
54945;SDS011;40846;44.788;20.486;2022-12-24T13:34:52;23.05;;;11.00;;
54945;SDS011;40846;44.788;20.486;2022-12-24T13:40:00;29.65;;;14.65;;
54945;SDS011;40846;44.788;20.486;2022-12-24T13:47:54;22.17;;;12.38;;
54945;SDS011;40846;44.788;20.486;2022-12-24T13:53:25;23.95;;;13.43;;
54945;SDS011;40846;44.788;20.486;2022-12-24T13:58:41;28.30;;;14.80;;
54945;SDS011;40846;44.788;20.486;2022-12-24T14:01:54;53.63;;;27.17;;
54945;SDS011;40846;44.788;20.486;2022-12-24T14:03:56;28.55;;;14.35;;
54945;SDS011;40846;44.788;20.486;2022-12-24T14:06:26;26.80;;;13.50;;
54945;SDS011;40846;44.788;20.486;2022-12-24T14:08:57;23.52;;;13.68;;
54945;SDS011;40846;44.788;20.486;2022-12-24T14:11:29;32.38;;;16.05;;
54945;SDS011;40846;44.788;20.486;2022-12-24T14:14:25;27.23;;;14.52;;
54945;SDS011;40846;44.788;20.486;2022-12-24T14:16:52;30.92;;;15.30;;
54945;SDS011;40846;44.788;20.486;2022-12-24T14:19:19;29.50;;;15.52;;
54945;SDS011;40846;44.788;20.486;2022-12-24T14:24:15;53.15;;;20.40;;
54945;SDS011;40846;44.788;20.486;2022-12-24T14:27:31;29.90;;;15.75;;
54945;SDS011;40846;44.788;20.486;2022-12-24T14:29:30;26.48;;;15.25;;
54945;SDS011;40846;44.788;20.486;2022-12-24T14:31:57;30.42;;;18.08;;
54945;SDS011;40846;44.788;20.486;2022-12-24T14:34:23;57.58;;;27.80;;
54945;SDS011;40846;44.788;20.486;2022-12-24T14:36:50;33.20;;;18.38;;
54945;SDS011;40846;44.788;20.486;2022-12-24T14:39:28;33.15;;;17.75;;
54945;SDS011;40846;44.788;20.486;2022-12-24T14:50:47;37.65;;;18.20;;
54945;SDS011;40846;44.788;20.486;2022-12-24T14:53:41;31.15;;;17.50;;
54945;SDS011;40846;44.788;20.486;2022-12-24T14:56:16;33.45;;;18.52;;
54945;SDS011;40846;44.788;20.486;2022-12-24T14:58:43;31.98;;;16.48;;
54945;SDS011;40846;44.788;20.486;2022-12-24T15:01:29;61.55;;;24.20;;
54945;SDS011;40846;44.788;20.486;2022-12-24T15:03:59;55.60;;;22.80;;
54945;SDS011;40846;44.788;20.486;2022-12-24T15:06:35;36.85;;;19.00;;
54945;SDS011;40846;44.788;20.486;2022-12-24T15:09:12;32.45;;;18.38;;
54945;SDS011;40846;44.788;20.486;2022-12-24T15:12:01;40.35;;;19.88;;
54945;SDS011;40846;44.788;20.486;2022-12-24T15:14:29;33.28;;;19.52;;
54945;SDS011;40846;44.788;20.486;2022-12-24T15:17:03;63.10;;;27.17;;
54945;SDS011;40846;44.788;20.486;2022-12-24T15:22:00;46.88;;;22.08;;
54945;SDS011;40846;44.788;20.486;2022-12-24T15:24:28;36.30;;;21.08;;
54945;SDS011;40846;44.788;20.486;2022-12-24T15:26:59;44.95;;;23.30;;
54945;SDS011;40846;44.788;20.486;2022-12-24T15:29:31;46.50;;;24.20;;
54945;SDS011;40846;44.788;20.486;2022-12-24T15:32:03;54.70;;;27.33;;
54945;SDS011;40846;44.788;20.486;2022-12-24T15:34:36;41.10;;;21.75;;
54945;SDS011;40846;44.788;20.486;2022-12-24T15:39:40;35.33;;;21.90;;
54945;SDS011;40846;44.788;20.486;2022-12-24T15:42:07;37.85;;;21.70;;
54945;SDS011;40846;44.788;20.486;2022-12-24T15:44:37;41.17;;;22.95;;
54945;SDS011;40846;44.788;20.486;2022-12-24T15:47:14;44.53;;;23.48;;
54945;SDS011;40846;44.788;20.486;2022-12-24T15:49:43;160.10;;;55.45;;
54945;SDS011;40846;44.788;20.486;2022-12-24T15:52:14;55.70;;;27.23;;
54945;SDS011;40846;44.788;20.486;2022-12-24T15:54:43;38.60;;;20.80;;
54945;SDS011;40846;44.788;20.486;2022-12-24T15:59:53;46.47;;;25.98;;
54945;SDS011;40846;44.788;20.486;2022-12-24T16:10:46;36.28;;;20.25;;
54945;SDS011;40846;44.788;20.486;2022-12-24T16:13:28;35.65;;;21.00;;
54945;SDS011;40846;44.788;20.486;2022-12-24T16:16:02;34.67;;;20.92;;
54945;SDS011;40846;44.788;20.486;2022-12-24T16:18:34;45.92;;;22.40;;
54945;SDS011;40846;44.788;20.486;2022-12-24T16:21:02;40.55;;;22.10;;
54945;SDS011;40846;44.788;20.486;2022-12-24T16:23:37;43.55;;;23.95;;
54945;SDS011;40846;44.788;20.486;2022-12-24T16:26:09;42.78;;;22.48;;
54945;SDS011;40846;44.788;20.486;2022-12-24T16:28:35;37.33;;;22.98;;
54945;SDS011;40846;44.788;20.486;2022-12-24T16:31:00;40.55;;;22.58;;
54945;SDS011;40846;44.788;20.486;2022-12-24T16:33:26;41.97;;;25.00;;
54945;SDS011;40846;44.788;20.486;2022-12-24T16:35:53;46.70;;;22.95;;
54945;SDS011;40846;44.788;20.486;2022-12-24T16:38:19;42.83;;;24.48;;
54945;SDS011;40846;44.788;20.486;2022-12-24T16:40:45;47.67;;;25.02;;